Аэропорт: Ширак. Гюмри

ICAO: UDSG

METAR:
2018/09/23 11:00
UDSG 231100Z 25004KT 190V310 9999 FEW049 22/04 Q1020 R02/CLRD70 NOSIG
METAR:
2018/09/23 12:00
TAF UDSG 231101Z 2312/2412 24008KT 9999 SCT040 
      TEMPO 2312/2318 VRB24KT -TSRA BKN030CB